Time;durP1;ratioP1;P1;durP2;ratioP2;P2;SDS_P1;SDS_P2;PMS_P1;PMS_P2;Temp;Humidity;BMP_temperature;BMP_pressure;BME280_temperature;BME280_humidity;BME280_pressure;Samples;Min_cycle;Max_cycle;Signal;HPM_P1;HPM_P2
2021/08/30 00:00:10;;;;;;;1999.90;999.90;;;;;;;;;;5053796;28;20491;-85
2021/08/30 00:02:37;;;;;;;1999.90;999.90;;;;;;;;;;5053768;28;20454;-84
2021/08/30 00:05:04;;;;;;;1999.90;999.90;;;;;;;;;;5053853;28;20837;-85
2021/08/30 00:07:31;;;;;;;1999.90;999.90;;;;;;;;;;5053408;28;20527;-85
2021/08/30 00:10:00;;;;;;;1999.90;999.90;;;;;;;;;;5053583;28;20467;-85
2021/08/30 00:12:27;;;;;;;1999.90;999.90;;;;;;;;;;5054587;28;20455;-85
2021/08/30 00:14:55;;;;;;;1999.90;999.90;;;;;;;;;;5053546;28;20491;-85
2021/08/30 00:17:22;;;;;;;1999.90;999.90;;;;;;;;;;5052958;28;20461;-85
2021/08/30 00:19:49;;;;;;;1999.90;999.90;;;;;;;;;;5053517;28;20469;-85
2021/08/30 00:22:16;;;;;;;1999.90;999.90;;;;;;;;;;5053180;28;20463;-85
2021/08/30 00:24:43;;;;;;;1999.90;999.90;;;;;;;;;;5053314;28;20806;-85
2021/08/30 00:27:12;;;;;;;1999.90;999.90;;;;;;;;;;5052614;28;20449;-84
2021/08/30 00:29:39;;;;;;;1999.90;999.90;;;;;;;;;;5053259;28;20482;-88
2021/08/30 00:32:06;;;;;;;1999.90;999.90;;;;;;;;;;5053294;28;20456;-85
2021/08/30 00:34:34;;;;;;;1999.90;999.90;;;;;;;;;;5053109;28;20492;-85
2021/08/30 00:37:01;;;;;;;1999.90;999.90;;;;;;;;;;5052900;28;20452;-84
2021/08/30 00:39:29;;;;;;;1999.90;999.90;;;;;;;;;;5053264;28;20456;-84
2021/08/30 00:41:57;;;;;;;1999.90;999.90;;;;;;;;;;5053262;28;20453;-85
2021/08/30 00:44:28;;;;;;;1999.90;999.90;;;;;;;;;;5053507;28;20445;-85
2021/08/30 00:46:56;;;;;;;1999.90;999.90;;;;;;;;;;5052619;28;20461;-85
2021/08/30 00:49:23;;;;;;;1999.90;999.90;;;;;;;;;;5052757;28;20566;-85
2021/08/30 00:51:51;;;;;;;1999.90;999.90;;;;;;;;;;5056963;28;20463;-85
2021/08/30 00:54:18;;;;;;;1999.90;999.90;;;;;;;;;;5058220;28;20493;-85
2021/08/30 00:56:46;;;;;;;1999.90;999.90;;;;;;;;;;5065571;28;20455;-86
2021/08/30 00:59:14;;;;;;;1999.90;999.90;;;;;;;;;;5055651;28;20481;-85
2021/08/30 01:01:43;;;;;;;1999.90;999.90;;;;;;;;;;5052063;28;20447;-85
2021/08/30 01:04:11;;;;;;;1999.90;999.90;;;;;;;;;;5051896;28;21119;-85
2021/08/30 01:06:41;;;;;;;1999.90;999.90;;;;;;;;;;5051862;28;20455;-84
2021/08/30 01:09:13;;;;;;;1999.90;999.90;;;;;;;;;;5051569;28;20472;-85
2021/08/30 01:11:43;;;;;;;1999.90;999.90;;;;;;;;;;5064932;28;20443;-88
2021/08/30 01:14:11;;;;;;;1999.90;999.90;;;;;;;;;;5046523;28;20474;-85
2021/08/30 01:16:39;;;;;;;1999.90;999.90;;;;;;;;;;5053735;28;20454;-85
2021/08/30 01:19:09;;;;;;;1999.90;999.90;;;;;;;;;;5054196;28;20571;-85
2021/08/30 01:21:39;;;;;;;1999.90;999.90;;;;;;;;;;5054593;28;20448;-85
2021/08/30 01:24:07;;;;;;;1999.90;999.90;;;;;;;;;;5057552;28;20459;-84
2021/08/30 01:26:37;;;;;;;1999.90;999.90;;;;;;;;;;5069170;28;20447;-84
2021/08/30 01:29:07;;;;;;;1999.90;999.90;;;;;;;;;;5061515;28;20474;-85
2021/08/30 01:31:39;;;;;;;1999.90;999.90;;;;;;;;;;5061650;28;20480;-86
2021/08/30 01:34:08;;;;;;;1999.90;999.90;;;;;;;;;;5056029;28;20502;-85
2021/08/30 01:36:36;;;;;;;1999.90;999.90;;;;;;;;;;5055689;28;20463;-84
2021/08/30 01:39:03;;;;;;;1999.90;999.90;;;;;;;;;;5055948;28;20475;-85
2021/08/30 01:41:30;;;;;;;1999.90;999.90;;;;;;;;;;5055994;28;20535;-86
2021/08/30 01:43:58;;;;;;;1999.90;999.90;;;;;;;;;;5055806;28;20447;-84
2021/08/30 01:46:26;;;;;;;1999.90;999.90;;;;;;;;;;5055324;28;20467;-85
2021/08/30 01:48:53;;;;;;;1999.90;999.90;;;;;;;;;;5055365;28;20475;-84
2021/08/30 01:51:23;;;;;;;1999.90;999.90;;;;;;;;;;5055691;28;20949;-84
2021/08/30 01:53:52;;;;;;;1999.90;999.90;;;;;;;;;;5055040;28;20487;-84
2021/08/30 01:56:20;;;;;;;1999.90;999.90;;;;;;;;;;5055353;28;20454;-85
2021/08/30 02:01:33;;;;;;;1999.90;999.90;;;;;;;;;;5055931;28;20434;-84
2021/08/30 02:04:00;;;;;;;1999.90;999.90;;;;;;;;;;5055473;28;20451;-85
2021/08/30 02:06:28;;;;;;;1999.90;999.90;;;;;;;;;;5055463;28;20455;-85
2021/08/30 02:08:56;;;;;;;1999.90;999.90;;;;;;;;;;5055610;28;20471;-85
2021/08/30 02:11:29;;;;;;;1999.90;999.90;;;;;;;;;;5055726;28;20486;-84
2021/08/30 02:13:57;;;;;;;1999.90;999.90;;;;;;;;;;5055270;28;21007;-85
2021/08/30 02:16:24;;;;;;;1999.90;999.90;;;;;;;;;;5055012;28;20461;-85
2021/08/30 02:18:53;;;;;;;1999.90;999.90;;;;;;;;;;5055524;28;20486;-85
2021/08/30 02:21:23;;;;;;;1999.90;999.90;;;;;;;;;;5056087;28;21015;-84
2021/08/30 02:24:00;;;;;;;1999.90;999.90;;;;;;;;;;5057804;28;20468;-85
2021/08/30 02:26:31;;;;;;;1999.90;999.90;;;;;;;;;;5060091;28;20454;-85
2021/08/30 02:29:01;;;;;;;1999.90;999.90;;;;;;;;;;5060078;28;20478;-83
2021/08/30 02:31:28;;;;;;;1999.90;999.90;;;;;;;;;;5061379;28;20461;-86
2021/08/30 02:33:57;;;;;;;1999.90;999.90;;;;;;;;;;5060925;28;20498;-85
2021/08/30 02:36:25;;;;;;;1999.90;999.90;;;;;;;;;;5060512;28;20454;-85
2021/08/30 02:38:55;;;;;;;1999.90;999.90;;;;;;;;;;5062376;28;20533;-85
2021/08/30 02:41:23;;;;;;;1999.90;999.90;;;;;;;;;;5062738;28;20443;-85
2021/08/30 02:43:50;;;;;;;1999.90;999.90;;;;;;;;;;5062246;28;20454;-86
2021/08/30 02:46:18;;;;;;;1999.90;999.90;;;;;;;;;;5062039;28;20452;-85
2021/08/30 02:48:46;;;;;;;1999.90;999.90;;;;;;;;;;5063163;28;20465;-86
2021/08/30 02:51:14;;;;;;;1999.90;999.90;;;;;;;;;;5063157;28;20470;-85
2021/08/30 02:53:42;;;;;;;1999.90;999.90;;;;;;;;;;5062493;28;20458;-84
2021/08/30 02:56:11;;;;;;;1999.90;999.90;;;;;;;;;;5063165;28;20446;-85
2021/08/30 02:58:38;;;;;;;1999.90;999.90;;;;;;;;;;5070183;28;20445;-84
2021/08/30 03:01:05;;;;;;;1999.90;999.90;;;;;;;;;;5058824;28;20492;-83
2021/08/30 03:03:33;;;;;;;1999.90;999.90;;;;;;;;;;5054904;28;20461;-84
2021/08/30 03:06:00;;;;;;;1999.90;999.90;;;;;;;;;;5054525;28;20623;-84
2021/08/30 03:08:27;;;;;;;1999.90;999.90;;;;;;;;;;5054171;28;20473;-85
2021/08/30 03:10:56;;;;;;;1999.90;999.90;;;;;;;;;;5054319;28;20478;-86
2021/08/30 03:13:24;;;;;;;1999.90;999.90;;;;;;;;;;5054674;28;20451;-85
2021/08/30 03:15:52;;;;;;;1999.90;999.90;;;;;;;;;;5054478;28;20491;-84
2021/08/30 03:18:20;;;;;;;1999.90;999.90;;;;;;;;;;5054102;28;20450;-85
2021/08/30 03:20:48;;;;;;;1999.90;999.90;;;;;;;;;;5053990;28;20498;-85
2021/08/30 03:23:16;;;;;;;1999.90;999.90;;;;;;;;;;5054201;28;20456;-84
2021/08/30 03:25:44;;;;;;;1999.90;999.90;;;;;;;;;;5054397;28;20455;-84
2021/08/30 03:28:11;;;;;;;1999.90;999.90;;;;;;;;;;5057048;28;20448;-85
2021/08/30 03:30:40;;;;;;;1999.90;999.90;;;;;;;;;;5054894;28;20475;-84
2021/08/30 03:33:08;;;;;;;1999.90;999.90;;;;;;;;;;5057042;28;20458;-85
2021/08/30 03:35:35;;;;;;;1999.90;999.90;;;;;;;;;;5053724;28;21029;-84
2021/08/30 03:38:03;;;;;;;1999.90;999.90;;;;;;;;;;5054456;28;20874;-84
2021/08/30 03:40:31;;;;;;;1999.90;999.90;;;;;;;;;;5053287;28;20865;-85
2021/08/30 03:42:58;;;;;;;1999.90;999.90;;;;;;;;;;5052924;28;20462;-87
2021/08/30 03:45:27;;;;;;;1999.90;999.90;;;;;;;;;;5053137;28;20447;-85
2021/08/30 03:47:56;;;;;;;1999.90;999.90;;;;;;;;;;5052615;28;20551;-84
2021/08/30 03:50:24;;;;;;;1999.90;999.90;;;;;;;;;;5052616;28;20478;-84
2021/08/30 03:52:52;;;;;;;1999.90;999.90;;;;;;;;;;5052592;28;20543;-85
2021/08/30 03:55:19;;;;;;;1999.90;999.90;;;;;;;;;;5052699;28;20493;-84
2021/08/30 03:57:46;;;;;;;1999.90;999.90;;;;;;;;;;5052496;28;20829;-84
2021/08/30 04:00:14;;;;;;;1999.90;999.90;;;;;;;;;;5052475;28;20483;-84
2021/08/30 04:02:41;;;;;;;1999.90;999.90;;;;;;;;;;5053179;28;20455;-84
2021/08/30 04:05:11;;;;;;;1999.90;999.90;;;;;;;;;;5052736;28;20456;-84
2021/08/30 04:07:38;;;;;;;1999.90;999.90;;;;;;;;;;5052685;28;20456;-84
2021/08/30 04:10:06;;;;;;;1999.90;999.90;;;;;;;;;;5052456;28;20992;-84
2021/08/30 04:12:33;;;;;;;1999.90;999.90;;;;;;;;;;5052952;28;20505;-85
2021/08/30 04:15:01;;;;;;;1999.90;999.90;;;;;;;;;;5052296;28;20496;-83
2021/08/30 04:17:28;;;;;;;1999.90;999.90;;;;;;;;;;5051922;28;20932;-85
2021/08/30 04:19:55;;;;;;;1999.90;999.90;;;;;;;;;;5052089;28;20480;-85
2021/08/30 04:22:24;;;;;;;1999.90;999.90;;;;;;;;;;5063153;28;20977;-84
2021/08/30 04:24:51;;;;;;;1999.90;999.90;;;;;;;;;;5063550;28;20452;-84
2021/08/30 04:27:18;;;;;;;1999.90;999.90;;;;;;;;;;5058122;28;20454;-85
2021/08/30 04:29:45;;;;;;;1999.90;999.90;;;;;;;;;;5073720;28;20571;-84
2021/08/30 04:32:12;;;;;;;1999.90;999.90;;;;;;;;;;5060795;28;20453;-87
2021/08/30 04:34:41;;;;;;;1999.90;999.90;;;;;;;;;;5059934;28;20491;-85
2021/08/30 04:37:09;;;;;;;1999.90;999.90;;;;;;;;;;5060671;28;20452;-85
2021/08/30 04:39:37;;;;;;;1999.90;999.90;;;;;;;;;;5061124;28;20498;-85
2021/08/30 04:42:05;;;;;;;1999.90;999.90;;;;;;;;;;5060802;28;20451;-85
2021/08/30 04:44:32;;;;;;;1999.90;999.90;;;;;;;;;;5062090;28;20823;-85
2021/08/30 04:47:01;;;;;;;1999.90;999.90;;;;;;;;;;5060602;28;20448;-86
2021/08/30 04:49:28;;;;;;;1999.90;999.90;;;;;;;;;;5060352;28;20523;-86
2021/08/30 04:51:55;;;;;;;1999.90;999.90;;;;;;;;;;5060650;28;20447;-87
2021/08/30 04:54:22;;;;;;;1999.90;999.90;;;;;;;;;;5060950;28;20490;-85
2021/08/30 04:56:51;;;;;;;1999.90;999.90;;;;;;;;;;5061532;28;20808;-85
2021/08/30 04:59:18;;;;;;;1999.90;999.90;;;;;;;;;;5084208;22;20469;-85
2021/08/30 05:01:45;;;;;;;1999.90;999.90;;;;;;;;;;5100026;28;20459;-83
2021/08/30 05:04:12;;;;;;;1999.90;999.90;;;;;;;;;;5102766;28;20452;-85
2021/08/30 05:06:39;;;;;;;1999.90;999.90;;;;;;;;;;5100929;28;20948;-84
2021/08/30 05:09:06;;;;;;;1999.90;999.90;;;;;;;;;;5101233;28;20537;-85
2021/08/30 05:11:34;;;;;;;1999.90;999.90;;;;;;;;;;5102755;28;20533;-83
2021/08/30 05:14:02;;;;;;;1999.90;999.90;;;;;;;;;;5101109;28;20539;-84
2021/08/30 05:16:29;;;;;;;1999.90;999.90;;;;;;;;;;5099676;28;20488;-82
2021/08/30 05:18:56;;;;;;;1999.90;999.90;;;;;;;;;;5098275;28;20432;-83
2021/08/30 05:21:23;;;;;;;1999.90;999.90;;;;;;;;;;5097853;28;20224;-83
2021/08/30 05:23:50;;;;;;;1999.90;999.90;;;;;;;;;;5098854;28;20459;-83
2021/08/30 05:26:18;;;;;;;1999.90;999.90;;;;;;;;;;5098756;28;20442;-84
2021/08/30 05:28:45;;;;;;;1999.90;999.90;;;;;;;;;;5100857;28;20455;-84
2021/08/30 05:31:14;;;;;;;1999.90;999.90;;;;;;;;;;5099734;28;20492;-84
2021/08/30 05:33:41;;;;;;;1999.90;999.90;;;;;;;;;;5099069;28;20513;-83
2021/08/30 05:36:08;;;;;;;1999.90;999.90;;;;;;;;;;5098156;28;20485;-82
2021/08/30 05:38:36;;;;;;;1999.90;999.90;;;;;;;;;;5098573;28;20453;-84
2021/08/30 05:41:03;;;;;;;1999.90;999.90;;;;;;;;;;5098188;28;20469;-84
2021/08/30 05:43:30;;;;;;;1999.90;999.90;;;;;;;;;;5098832;28;20457;-83
2021/08/30 05:45:57;;;;;;;1999.90;999.90;;;;;;;;;;5098024;28;20463;-84
2021/08/30 05:48:26;;;;;;;1999.90;999.90;;;;;;;;;;5097941;28;20449;-84
2021/08/30 05:50:53;;;;;;;1999.90;999.90;;;;;;;;;;5097833;28;21006;-84
2021/08/30 05:53:20;;;;;;;1999.90;999.90;;;;;;;;;;5098046;28;20456;-84
2021/08/30 05:55:47;;;;;;;1999.90;999.90;;;;;;;;;;5097722;28;20484;-84
2021/08/30 05:58:15;;;;;;;1999.90;999.90;;;;;;;;;;5097753;28;20456;-85
2021/08/30 06:00:43;;;;;;;1999.90;999.90;;;;;;;;;;5099021;28;20506;-85
2021/08/30 06:03:10;;;;;;;1999.90;999.90;;;;;;;;;;5097701;28;20923;-85
2021/08/30 06:05:38;;;;;;;1999.90;999.90;;;;;;;;;;5097475;28;20446;-85
2021/08/30 06:08:05;;;;;;;1999.90;999.90;;;;;;;;;;5097499;28;20448;-84
2021/08/30 06:10:33;;;;;;;1999.90;999.90;;;;;;;;;;5096866;28;20468;-84
2021/08/30 06:13:00;;;;;;;1999.90;999.90;;;;;;;;;;5098418;28;20516;-84
2021/08/30 06:15:27;;;;;;;1999.90;999.90;;;;;;;;;;5097453;28;20493;-84
2021/08/30 06:17:54;;;;;;;1999.90;999.90;;;;;;;;;;5097643;28;20444;-85
2021/08/30 06:20:22;;;;;;;1999.90;999.90;;;;;;;;;;5097853;28;20475;-84
2021/08/30 06:22:50;;;;;;;1999.90;999.90;;;;;;;;;;5097621;28;20463;-84
2021/08/30 06:25:17;;;;;;;1999.90;999.90;;;;;;;;;;5097472;28;20446;-84
2021/08/30 06:27:45;;;;;;;1999.90;999.90;;;;;;;;;;5096373;28;20449;-83
2021/08/30 06:30:12;;;;;;;1999.90;999.90;;;;;;;;;;5097506;28;20467;-84
2021/08/30 06:32:39;;;;;;;1999.90;999.90;;;;;;;;;;5097692;28;20578;-84
2021/08/30 06:35:07;;;;;;;1999.90;999.90;;;;;;;;;;5097205;28;20485;-84
2021/08/30 06:37:34;;;;;;;1999.90;999.90;;;;;;;;;;5096321;28;20445;-84
2021/08/30 06:40:03;;;;;;;1999.90;999.90;;;;;;;;;;5096931;28;20476;-84
2021/08/30 06:42:30;;;;;;;1999.90;999.90;;;;;;;;;;5097478;28;20455;-85
2021/08/30 06:44:57;;;;;;;1999.90;999.90;;;;;;;;;;5104154;28;20446;-84
2021/08/30 06:47:24;;;;;;;1999.90;999.90;;;;;;;;;;5099140;28;20450;-86
2021/08/30 06:49:51;;;;;;;1999.90;999.90;;;;;;;;;;5098057;28;20470;-86
2021/08/30 06:52:18;;;;;;;1999.90;999.90;;;;;;;;;;5098070;28;20455;-85
2021/08/30 06:54:46;;;;;;;1999.90;999.90;;;;;;;;;;5097491;28;20540;-86
2021/08/30 06:57:14;;;;;;;1999.90;999.90;;;;;;;;;;5097549;28;20450;-85
2021/08/30 06:59:41;;;;;;;1999.90;999.90;;;;;;;;;;5097439;28;21384;-86
2021/08/30 07:02:08;;;;;;;1999.90;999.90;;;;;;;;;;5097803;28;20536;-85
2021/08/30 07:04:36;;;;;;;1999.90;999.90;;;;;;;;;;5096747;28;20820;-84
2021/08/30 07:07:03;;;;;;;1999.90;999.90;;;;;;;;;;5095797;28;20443;-85
2021/08/30 07:09:30;;;;;;;1999.90;999.90;;;;;;;;;;5095316;28;20477;-85
2021/08/30 07:11:57;;;;;;;1999.90;999.90;;;;;;;;;;5095006;28;20436;-84
2021/08/30 07:14:26;;;;;;;1999.90;999.90;;;;;;;;;;5095314;28;20557;-85
2021/08/30 07:16:53;;;;;;;1999.90;999.90;;;;;;;;;;5094576;28;20676;-85
2021/08/30 07:19:20;;;;;;;1999.90;999.90;;;;;;;;;;5095115;28;20483;-85
2021/08/30 07:21:48;;;;;;;1999.90;999.90;;;;;;;;;;5094309;28;20447;-84
2021/08/30 07:24:15;;;;;;;1999.90;999.90;;;;;;;;;;5094752;28;20565;-84
2021/08/30 07:26:42;;;;;;;1999.90;999.90;;;;;;;;;;5093771;28;20938;-85
2021/08/30 07:29:09;;;;;;;1999.90;999.90;;;;;;;;;;5094130;28;20475;-84
2021/08/30 07:31:38;;;;;;;1999.90;999.90;;;;;;;;;;5094629;28;20457;-84
2021/08/30 07:34:05;;;;;;;1999.90;999.90;;;;;;;;;;5093858;28;20454;-85
2021/08/30 07:36:32;;;;;;;1999.90;999.90;;;;;;;;;;5093879;28;20486;-84
2021/08/30 07:39:00;;;;;;;1999.90;999.90;;;;;;;;;;5093816;28;20457;-85
2021/08/30 07:41:28;;;;;;;1999.90;999.90;;;;;;;;;;5093593;28;20474;-85
2021/08/30 07:43:57;;;;;;;1999.90;999.90;;;;;;;;;;5093852;28;20450;-84
2021/08/30 07:46:24;;;;;;;1999.90;999.90;;;;;;;;;;5093927;28;20504;-85
2021/08/30 07:48:53;;;;;;;1999.90;999.90;;;;;;;;;;5093845;28;20453;-85
2021/08/30 07:51:20;;;;;;;1999.90;999.90;;;;;;;;;;5093418;28;20501;-84
2021/08/30 07:53:47;;;;;;;1999.90;999.90;;;;;;;;;;5094477;28;20896;-84
2021/08/30 07:56:15;;;;;;;1999.90;999.90;;;;;;;;;;5092927;28;20483;-84
2021/08/30 07:58:42;;;;;;;1999.90;999.90;;;;;;;;;;5093182;28;20438;-85
2021/08/30 08:01:09;;;;;;;1999.90;999.90;;;;;;;;;;5093306;28;20476;-83
2021/08/30 08:03:36;;;;;;;1999.90;999.90;;;;;;;;;;5093316;28;20458;-85
2021/08/30 08:06:04;;;;;;;1999.90;999.90;;;;;;;;;;5093139;28;20451;-85
2021/08/30 08:08:31;;;;;;;1999.90;999.90;;;;;;;;;;5092632;28;20447;-85
2021/08/30 08:10:59;;;;;;;1999.90;999.90;;;;;;;;;;5092957;28;20986;-85
2021/08/30 08:13:28;;;;;;;1999.90;999.90;;;;;;;;;;5094395;28;20450;-84
2021/08/30 08:15:56;;;;;;;1999.90;999.90;;;;;;;;;;5100813;28;20529;-85
2021/08/30 08:18:23;;;;;;;1999.90;999.90;;;;;;;;;;5101313;28;20479;-85
2021/08/30 08:20:50;;;;;;;1999.90;999.90;;;;;;;;;;5099155;28;20466;-86
2021/08/30 08:23:18;;;;;;;1999.90;999.90;;;;;;;;;;5099610;28;20454;-85
2021/08/30 08:25:45;;;;;;;1999.90;999.90;;;;;;;;;;5099388;28;20441;-85
2021/08/30 08:28:12;;;;;;;1999.90;999.90;;;;;;;;;;5100175;28;20475;-85
2021/08/30 08:30:40;;;;;;;1999.90;999.90;;;;;;;;;;5099747;28;20478;-86
2021/08/30 08:33:07;;;;;;;1999.90;999.90;;;;;;;;;;5101638;28;20519;-85
2021/08/30 08:35:34;;;;;;;1999.90;999.90;;;;;;;;;;5104320;28;20571;-85
2021/08/30 08:38:01;;;;;;;1999.90;999.90;;;;;;;;;;5103303;28;20456;-85
2021/08/30 08:40:29;;;;;;;1999.90;999.90;;;;;;;;;;5104522;28;20476;-85
2021/08/30 08:42:56;;;;;;;1999.90;999.90;;;;;;;;;;5107550;28;20435;-84
2021/08/30 08:45:24;;;;;;;1999.90;999.90;;;;;;;;;;5108799;28;20441;-85
2021/08/30 08:47:51;;;;;;;1999.90;999.90;;;;;;;;;;5107902;28;20463;-85
2021/08/30 08:50:20;;;;;;;1999.90;999.90;;;;;;;;;;5105876;28;20513;-86
2021/08/30 08:52:48;;;;;;;1999.90;999.90;;;;;;;;;;5106278;28;20545;-85
2021/08/30 08:55:16;;;;;;;1999.90;999.90;;;;;;;;;;5105903;28;20969;-85
2021/08/30 08:57:44;;;;;;;1999.90;999.90;;;;;;;;;;5109074;28;20470;-85
2021/08/30 09:00:13;;;;;;;1999.90;999.90;;;;;;;;;;5106710;28;20472;-85
2021/08/30 09:02:40;;;;;;;1999.90;999.90;;;;;;;;;;5104258;28;20479;-85
2021/08/30 09:05:08;;;;;;;1999.90;999.90;;;;;;;;;;5104039;28;20445;-86
2021/08/30 09:07:38;;;;;;;1999.90;999.90;;;;;;;;;;5104649;28;20447;-84
2021/08/30 09:10:08;;;;;;;1999.90;999.90;;;;;;;;;;5105935;28;20515;-85
2021/08/30 09:12:35;;;;;;;1999.90;999.90;;;;;;;;;;5105103;28;20506;-85
2021/08/30 09:15:13;;;;;;;1999.90;999.90;;;;;;;;;;5104849;28;20452;-85
2021/08/30 09:17:41;;;;;;;1999.90;999.90;;;;;;;;;;5110358;28;20485;-85
2021/08/30 09:20:14;;;;;;;1999.90;999.90;;;;;;;;;;5112612;28;20476;-85
2021/08/30 09:22:41;;;;;;;1999.90;999.90;;;;;;;;;;5110564;28;20454;-86
2021/08/30 09:25:10;;;;;;;1999.90;999.90;;;;;;;;;;5108932;28;20464;-85
2021/08/30 09:27:37;;;;;;;1999.90;999.90;;;;;;;;;;5107346;28;20470;-85
2021/08/30 09:30:05;;;;;;;1999.90;999.90;;;;;;;;;;5111421;28;20500;-85
2021/08/30 09:32:35;;;;;;;1999.90;999.90;;;;;;;;;;5109159;28;20547;-84
2021/08/30 09:35:04;;;;;;;1999.90;999.90;;;;;;;;;;5104275;28;20459;-84
2021/08/30 09:37:35;;;;;;;1999.90;999.90;;;;;;;;;;5103504;28;20515;-85
2021/08/30 09:40:02;;;;;;;1999.90;999.90;;;;;;;;;;5103296;28;20480;-85
2021/08/30 09:42:31;;;;;;;1999.90;999.90;;;;;;;;;;5102838;28;20539;-85
2021/08/30 09:45:08;;;;;;;1999.90;999.90;;;;;;;;;;5103955;28;20445;-85
2021/08/30 09:47:37;;;;;;;1999.90;999.90;;;;;;;;;;5103331;28;20441;-85
2021/08/30 09:50:10;;;;;;;1999.90;999.90;;;;;;;;;;5105727;28;21062;-85
2021/08/30 09:52:39;;;;;;;1999.90;999.90;;;;;;;;;;5103611;28;20499;-85
2021/08/30 09:55:06;;;;;;;1999.90;999.90;;;;;;;;;;5103485;28;20449;-84
2021/08/30 09:57:34;;;;;;;1999.90;999.90;;;;;;;;;;5104083;28;20861;-85
2021/08/30 10:00:03;;;;;;;1999.90;999.90;;;;;;;;;;5103888;28;20493;-86
2021/08/30 10:02:31;;;;;;;1999.90;999.90;;;;;;;;;;5104220;28;20470;-85
2021/08/30 10:05:01;;;;;;;1999.90;999.90;;;;;;;;;;5103619;28;20445;-85
2021/08/30 10:07:29;;;;;;;1999.90;999.90;;;;;;;;;;5104028;28;20490;-85
2021/08/30 10:09:57;;;;;;;1999.90;999.90;;;;;;;;;;5102468;28;20469;-86
2021/08/30 10:12:24;;;;;;;1999.90;999.90;;;;;;;;;;5104155;28;20452;-84
2021/08/30 10:14:52;;;;;;;1999.90;999.90;;;;;;;;;;5102524;28;20468;-85
2021/08/30 10:17:19;;;;;;;1999.90;999.90;;;;;;;;;;5103183;28;20527;-85
2021/08/30 10:19:56;;;;;;;1999.90;999.90;;;;;;;;;;5103028;28;20473;-84
2021/08/30 10:22:25;;;;;;;1999.90;999.90;;;;;;;;;;5101713;28;20460;-85
2021/08/30 10:24:53;;;;;;;1999.90;999.90;;;;;;;;;;5100122;28;20454;-84
2021/08/30 10:27:28;;;;;;;1999.90;999.90;;;;;;;;;;5097703;28;20438;-84
2021/08/30 10:30:03;;;;;;;1999.90;999.90;;;;;;;;;;5102415;28;20501;-84
2021/08/30 10:32:33;;;;;;;1999.90;999.90;;;;;;;;;;5102369;28;20445;-85
2021/08/30 10:35:00;;;;;;;1999.90;999.90;;;;;;;;;;5102931;28;20460;-84
2021/08/30 10:37:29;;;;;;;1999.90;999.90;;;;;;;;;;5101657;28;20481;-84
2021/08/30 10:39:56;;;;;;;1999.90;999.90;;;;;;;;;;5103264;28;20470;-84
2021/08/30 10:42:24;;;;;;;1999.90;999.90;;;;;;;;;;5106123;28;20452;-85
2021/08/30 10:44:51;;;;;;;1999.90;999.90;;;;;;;;;;5103107;28;20446;-84
2021/08/30 10:47:18;;;;;;;1999.90;999.90;;;;;;;;;;5102915;28;20448;-84
2021/08/30 10:49:48;;;;;;;1999.90;999.90;;;;;;;;;;5103772;28;20470;-84
2021/08/30 10:52:16;;;;;;;1999.90;999.90;;;;;;;;;;5103219;28;20450;-84
2021/08/30 10:54:54;;;;;;;1999.90;999.90;;;;;;;;;;5101142;28;20450;-84
2021/08/30 10:57:32;;;;;;;1999.90;999.90;;;;;;;;;;5101949;28;20480;-85
2021/08/30 11:00:00;;;;;;;1999.90;999.90;;;;;;;;;;5111588;22;20480;-87
2021/08/30 11:02:36;;;;;;;1999.90;999.90;;;;;;;;;;5097486;28;20505;-84
2021/08/30 11:05:03;;;;;;;1999.90;999.90;;;;;;;;;;5086072;28;20442;-85
2021/08/30 11:07:31;;;;;;;1999.90;999.90;;;;;;;;;;5085289;28;20449;-85
2021/08/30 11:10:01;;;;;;;1999.90;999.90;;;;;;;;;;5084918;28;21010;-83
2021/08/30 11:12:28;;;;;;;1999.90;999.90;;;;;;;;;;5085132;28;20442;-85
2021/08/30 11:14:56;;;;;;;1999.90;999.90;;;;;;;;;;5087329;28;20441;-84
2021/08/30 11:17:26;;;;;;;1999.90;999.90;;;;;;;;;;5086086;28;20498;-85
2021/08/30 11:19:54;;;;;;;1999.90;999.90;;;;;;;;;;5086251;28;20447;-84
2021/08/30 11:22:22;;;;;;;1999.90;999.90;;;;;;;;;;5086896;28;20459;-83
2021/08/30 11:24:49;;;;;;;1999.90;999.90;;;;;;;;;;5090561;28;20447;-85
2021/08/30 11:27:19;;;;;;;1999.90;999.90;;;;;;;;;;5087917;28;20535;-83
2021/08/30 11:29:47;;;;;;;1999.90;999.90;;;;;;;;;;5087815;28;20490;-84
2021/08/30 11:32:15;;;;;;;1999.90;999.90;;;;;;;;;;5089641;28;20483;-84
2021/08/30 11:34:42;;;;;;;1999.90;999.90;;;;;;;;;;5088086;28;20447;-84
2021/08/30 11:37:10;;;;;;;1999.90;999.90;;;;;;;;;;5088506;28;20483;-86
2021/08/30 11:39:38;;;;;;;1999.90;999.90;;;;;;;;;;5088941;28;21156;-86
2021/08/30 11:42:06;;;;;;;1999.90;999.90;;;;;;;;;;5087914;28;21010;-86
2021/08/30 11:44:36;;;;;;;1999.90;999.90;;;;;;;;;;5088556;28;20520;-83
2021/08/30 11:47:05;;;;;;;1999.90;999.90;;;;;;;;;;5085706;28;20511;-84
2021/08/30 11:49:33;;;;;;;1999.90;999.90;;;;;;;;;;5087401;28;20445;-86
2021/08/30 11:52:00;;;;;;;1999.90;999.90;;;;;;;;;;5087730;28;20471;-85
2021/08/30 11:54:29;;;;;;;1999.90;999.90;;;;;;;;;;5088194;28;20513;-84
2021/08/30 11:56:58;;;;;;;1999.90;999.90;;;;;;;;;;5088454;28;20539;-85
2021/08/30 11:59:29;;;;;;;1999.90;999.90;;;;;;;;;;5088320;28;20470;-85
2021/08/30 12:01:59;;;;;;;1999.90;999.90;;;;;;;;;;5086261;28;20477;-84
2021/08/30 12:04:28;;;;;;;1999.90;999.90;;;;;;;;;;5086709;28;20451;-85
2021/08/30 12:06:56;;;;;;;1999.90;999.90;;;;;;;;;;5087297;28;20457;-86
2021/08/30 12:09:23;;;;;;;1999.90;999.90;;;;;;;;;;5087777;28;20529;-86
2021/08/30 12:11:51;;;;;;;1999.90;999.90;;;;;;;;;;5088415;28;20562;-85
2021/08/30 12:14:20;;;;;;;1999.90;999.90;;;;;;;;;;5088734;28;20447;-86
2021/08/30 12:16:48;;;;;;;1999.90;999.90;;;;;;;;;;5087155;28;20522;-86
2021/08/30 12:19:16;;;;;;;1999.90;999.90;;;;;;;;;;5091910;28;20484;-86
2021/08/30 12:21:44;;;;;;;1999.90;999.90;;;;;;;;;;5092663;28;21054;-87
2021/08/30 12:24:19;;;;;;;1999.90;999.90;;;;;;;;;;5080713;28;20957;-84
2021/08/30 12:26:47;;;;;;;1999.90;999.90;;;;;;;;;;5079553;28;20447;-84
2021/08/30 12:29:14;;;;;;;1999.90;999.90;;;;;;;;;;5080869;28;20458;-84
2021/08/30 12:31:41;;;;;;;1999.90;999.90;;;;;;;;;;5081599;28;20524;-85
2021/08/30 12:34:09;;;;;;;1999.90;999.90;;;;;;;;;;5081683;28;20451;-82
2021/08/30 12:36:37;;;;;;;1999.90;999.90;;;;;;;;;;5084758;28;20445;-84
2021/08/30 12:39:05;;;;;;;1999.90;999.90;;;;;;;;;;5083996;28;20462;-83
2021/08/30 12:41:32;;;;;;;1999.90;999.90;;;;;;;;;;5085422;28;20475;-83
2021/08/30 12:43:59;;;;;;;1999.90;999.90;;;;;;;;;;5086828;28;20514;-83
2021/08/30 12:46:27;;;;;;;1999.90;999.90;;;;;;;;;;5087651;28;20457;-85
2021/08/30 12:48:55;;;;;;;1999.90;999.90;;;;;;;;;;5087401;28;20457;-84
2021/08/30 12:51:22;;;;;;;1999.90;999.90;;;;;;;;;;5088252;28;20497;-83
2021/08/30 12:53:50;;;;;;;1999.90;999.90;;;;;;;;;;5088316;28;20461;-83
2021/08/30 12:56:17;;;;;;;1999.90;999.90;;;;;;;;;;5088140;28;20526;-87
2021/08/30 12:58:44;;;;;;;1999.90;999.90;;;;;;;;;;5086375;28;20496;-84
2021/08/30 13:01:12;;;;;;;1999.90;999.90;;;;;;;;;;5084469;28;20584;-85
2021/08/30 13:03:40;;;;;;;1999.90;999.90;;;;;;;;;;5085865;28;20447;-82
2021/08/30 13:06:07;;;;;;;1999.90;999.90;;;;;;;;;;5085293;28;20767;-82
2021/08/30 13:08:34;;;;;;;1999.90;999.90;;;;;;;;;;5084068;28;20474;-83
2021/08/30 13:11:03;;;;;;;1999.90;999.90;;;;;;;;;;5085437;28;20474;-82
2021/08/30 13:13:30;;;;;;;1999.90;999.90;;;;;;;;;;5084215;28;20533;-83
2021/08/30 13:15:58;;;;;;;1999.90;999.90;;;;;;;;;;5085150;28;20451;-82
2021/08/30 13:18:26;;;;;;;1999.90;999.90;;;;;;;;;;5083641;28;20570;-82
2021/08/30 13:20:53;;;;;;;1999.90;999.90;;;;;;;;;;5087506;28;20467;-83
2021/08/30 13:23:20;;;;;;;1999.90;999.90;;;;;;;;;;5087961;28;20453;-82
2021/08/30 13:25:48;;;;;;;1999.90;999.90;;;;;;;;;;5087203;28;20447;-82
2021/08/30 13:28:16;;;;;;;1999.90;999.90;;;;;;;;;;5086697;28;20683;-82
2021/08/30 13:30:43;;;;;;;1999.90;999.90;;;;;;;;;;5087128;28;20470;-82
2021/08/30 13:33:12;;;;;;;1999.90;999.90;;;;;;;;;;5086941;28;20539;-83
2021/08/30 13:35:42;;;;;;;1999.90;999.90;;;;;;;;;;5087045;28;20876;-84
2021/08/30 13:38:09;;;;;;;1999.90;999.90;;;;;;;;;;5085595;28;20512;-83
2021/08/30 13:40:36;;;;;;;1999.90;999.90;;;;;;;;;;5084997;28;20471;-84
2021/08/30 13:43:04;;;;;;;1999.90;999.90;;;;;;;;;;5084628;28;20451;-84
2021/08/30 13:45:32;;;;;;;1999.90;999.90;;;;;;;;;;5085223;28;20517;-86
2021/08/30 13:47:59;;;;;;;1999.90;999.90;;;;;;;;;;5089244;28;20901;-84